sensor_id;sensor_type;location;lat;lon;timestamp;P1;durP1;ratioP1;P2;durP2;ratioP2
54247;SDS011;40161;39.768;2.722;2023-09-19T00:01:32;6.43;;;4.00;;
54247;SDS011;40161;39.768;2.722;2023-09-19T00:03:58;6.78;;;3.88;;
54247;SDS011;40161;39.768;2.722;2023-09-19T00:06:24;7.47;;;4.13;;
54247;SDS011;40161;39.768;2.722;2023-09-19T00:08:51;6.95;;;3.78;;
54247;SDS011;40161;39.768;2.722;2023-09-19T00:11:17;7.45;;;3.97;;
54247;SDS011;40161;39.768;2.722;2023-09-19T00:13:43;7.70;;;4.50;;
54247;SDS011;40161;39.768;2.722;2023-09-19T00:16:09;8.70;;;3.85;;
54247;SDS011;40161;39.768;2.722;2023-09-19T00:18:36;5.93;;;3.60;;
54247;SDS011;40161;39.768;2.722;2023-09-19T00:21:03;7.05;;;3.83;;
54247;SDS011;40161;39.768;2.722;2023-09-19T00:23:30;7.05;;;3.85;;
54247;SDS011;40161;39.768;2.722;2023-09-19T00:25:59;11.02;;;4.97;;
54247;SDS011;40161;39.768;2.722;2023-09-19T00:28:25;10.80;;;5.57;;
54247;SDS011;40161;39.768;2.722;2023-09-19T00:30:51;10.23;;;4.85;;
54247;SDS011;40161;39.768;2.722;2023-09-19T00:33:16;8.35;;;4.10;;
54247;SDS011;40161;39.768;2.722;2023-09-19T00:35:49;7.60;;;3.72;;
54247;SDS011;40161;39.768;2.722;2023-09-19T00:38:15;6.43;;;3.85;;
54247;SDS011;40161;39.768;2.722;2023-09-19T00:40:45;7.50;;;4.05;;
54247;SDS011;40161;39.768;2.722;2023-09-19T00:43:11;7.10;;;4.25;;
54247;SDS011;40161;39.768;2.722;2023-09-19T00:45:37;8.48;;;4.30;;
54247;SDS011;40161;39.768;2.722;2023-09-19T00:48:04;7.65;;;3.90;;
54247;SDS011;40161;39.768;2.722;2023-09-19T00:50:34;6.47;;;4.00;;
54247;SDS011;40161;39.768;2.722;2023-09-19T00:53:00;7.15;;;3.95;;
54247;SDS011;40161;39.768;2.722;2023-09-19T00:55:26;7.65;;;4.22;;
54247;SDS011;40161;39.768;2.722;2023-09-19T00:57:55;6.72;;;3.67;;
54247;SDS011;40161;39.768;2.722;2023-09-19T01:00:22;6.68;;;3.60;;
54247;SDS011;40161;39.768;2.722;2023-09-19T01:02:48;8.40;;;3.75;;
54247;SDS011;40161;39.768;2.722;2023-09-19T01:05:14;6.25;;;3.72;;
54247;SDS011;40161;39.768;2.722;2023-09-19T01:07:40;5.75;;;3.50;;
54247;SDS011;40161;39.768;2.722;2023-09-19T01:10:08;11.80;;;5.10;;
54247;SDS011;40161;39.768;2.722;2023-09-19T01:15:38;17.85;;;8.63;;
54247;SDS011;40161;39.768;2.722;2023-09-19T01:21:30;11.23;;;5.60;;
54247;SDS011;40161;39.768;2.722;2023-09-19T01:29:51;9.85;;;4.30;;
54247;SDS011;40161;39.768;2.722;2023-09-19T01:32:17;7.05;;;3.92;;
54247;SDS011;40161;39.768;2.722;2023-09-19T01:34:50;8.38;;;4.32;;
54247;SDS011;40161;39.768;2.722;2023-09-19T01:39:46;7.22;;;3.60;;
54247;SDS011;40161;39.768;2.722;2023-09-19T01:44:54;7.35;;;4.20;;
54247;SDS011;40161;39.768;2.722;2023-09-19T01:47:30;7.40;;;3.65;;
54247;SDS011;40161;39.768;2.722;2023-09-19T01:52:41;6.68;;;4.10;;
54247;SDS011;40161;39.768;2.722;2023-09-19T01:55:13;5.45;;;3.58;;
54247;SDS011;40161;39.768;2.722;2023-09-19T01:57:46;6.78;;;3.45;;
54247;SDS011;40161;39.768;2.722;2023-09-19T02:00:17;6.18;;;3.65;;
54247;SDS011;40161;39.768;2.722;2023-09-19T02:02:46;7.07;;;3.58;;
54247;SDS011;40161;39.768;2.722;2023-09-19T02:05:13;6.60;;;3.28;;
54247;SDS011;40161;39.768;2.722;2023-09-19T02:07:47;5.88;;;3.28;;
54247;SDS011;40161;39.768;2.722;2023-09-19T02:10:12;5.78;;;3.15;;
54247;SDS011;40161;39.768;2.722;2023-09-19T02:12:39;7.40;;;4.20;;
54247;SDS011;40161;39.768;2.722;2023-09-19T02:15:04;15.10;;;5.65;;
54247;SDS011;40161;39.768;2.722;2023-09-19T02:17:32;9.13;;;4.78;;
54247;SDS011;40161;39.768;2.722;2023-09-19T02:19:58;6.20;;;3.67;;
54247;SDS011;40161;39.768;2.722;2023-09-19T02:22:27;6.25;;;3.38;;
54247;SDS011;40161;39.768;2.722;2023-09-19T02:24:53;6.78;;;3.70;;
54247;SDS011;40161;39.768;2.722;2023-09-19T02:27:19;7.10;;;3.50;;
54247;SDS011;40161;39.768;2.722;2023-09-19T02:29:44;7.03;;;3.55;;
54247;SDS011;40161;39.768;2.722;2023-09-19T02:32:10;5.07;;;2.78;;
54247;SDS011;40161;39.768;2.722;2023-09-19T02:34:36;6.63;;;2.95;;
54247;SDS011;40161;39.768;2.722;2023-09-19T02:37:05;7.40;;;3.20;;
54247;SDS011;40161;39.768;2.722;2023-09-19T02:39:31;7.70;;;3.28;;
54247;SDS011;40161;39.768;2.722;2023-09-19T02:41:57;5.95;;;3.10;;
54247;SDS011;40161;39.768;2.722;2023-09-19T02:44:23;5.63;;;2.70;;
54247;SDS011;40161;39.768;2.722;2023-09-19T02:46:49;5.97;;;2.63;;
54247;SDS011;40161;39.768;2.722;2023-09-19T02:49:15;6.47;;;3.17;;
54247;SDS011;40161;39.768;2.722;2023-09-19T02:51:42;4.50;;;2.63;;
54247;SDS011;40161;39.768;2.722;2023-09-19T02:54:08;6.90;;;2.70;;
54247;SDS011;40161;39.768;2.722;2023-09-19T02:56:34;6.38;;;2.53;;
54247;SDS011;40161;39.768;2.722;2023-09-19T02:59:01;4.93;;;2.35;;
54247;SDS011;40161;39.768;2.722;2023-09-19T03:01:27;4.68;;;2.15;;
54247;SDS011;40161;39.768;2.722;2023-09-19T03:03:53;4.70;;;2.50;;
54247;SDS011;40161;39.768;2.722;2023-09-19T03:06:19;5.15;;;2.78;;
54247;SDS011;40161;39.768;2.722;2023-09-19T03:08:46;6.80;;;2.95;;
54247;SDS011;40161;39.768;2.722;2023-09-19T03:11:14;4.95;;;2.47;;
54247;SDS011;40161;39.768;2.722;2023-09-19T03:13:41;5.60;;;2.80;;
54247;SDS011;40161;39.768;2.722;2023-09-19T03:16:07;5.10;;;2.60;;
54247;SDS011;40161;39.768;2.722;2023-09-19T03:18:34;5.35;;;2.90;;
54247;SDS011;40161;39.768;2.722;2023-09-19T03:21:00;5.45;;;2.45;;
54247;SDS011;40161;39.768;2.722;2023-09-19T03:23:26;5.22;;;2.65;;
54247;SDS011;40161;39.768;2.722;2023-09-19T03:25:53;4.60;;;2.60;;
54247;SDS011;40161;39.768;2.722;2023-09-19T03:28:22;5.22;;;2.55;;
54247;SDS011;40161;39.768;2.722;2023-09-19T03:31:06;4.93;;;2.70;;
54247;SDS011;40161;39.768;2.722;2023-09-19T03:33:32;9.50;;;4.53;;
54247;SDS011;40161;39.768;2.722;2023-09-19T03:35:59;8.07;;;3.42;;
54247;SDS011;40161;39.768;2.722;2023-09-19T03:38:26;6.63;;;3.00;;
54247;SDS011;40161;39.768;2.722;2023-09-19T03:40:52;5.47;;;2.45;;
54247;SDS011;40161;39.768;2.722;2023-09-19T03:43:18;4.93;;;2.55;;
54247;SDS011;40161;39.768;2.722;2023-09-19T03:45:44;4.50;;;2.55;;
54247;SDS011;40161;39.768;2.722;2023-09-19T03:48:11;5.13;;;2.70;;
54247;SDS011;40161;39.768;2.722;2023-09-19T03:50:38;5.70;;;2.70;;
54247;SDS011;40161;39.768;2.722;2023-09-19T03:53:04;5.68;;;2.88;;
54247;SDS011;40161;39.768;2.722;2023-09-19T03:55:31;7.55;;;3.42;;
54247;SDS011;40161;39.768;2.722;2023-09-19T03:57:57;6.13;;;3.10;;
54247;SDS011;40161;39.768;2.722;2023-09-19T04:00:23;6.75;;;3.40;;
54247;SDS011;40161;39.768;2.722;2023-09-19T04:02:51;8.20;;;3.20;;
54247;SDS011;40161;39.768;2.722;2023-09-19T04:05:18;5.15;;;2.90;;
54247;SDS011;40161;39.768;2.722;2023-09-19T04:07:44;5.43;;;2.88;;
54247;SDS011;40161;39.768;2.722;2023-09-19T04:10:10;8.23;;;3.10;;
54247;SDS011;40161;39.768;2.722;2023-09-19T04:12:39;6.45;;;2.75;;
54247;SDS011;40161;39.768;2.722;2023-09-19T04:15:06;6.25;;;2.60;;
54247;SDS011;40161;39.768;2.722;2023-09-19T04:17:32;12.48;;;4.57;;
54247;SDS011;40161;39.768;2.722;2023-09-19T04:19:58;6.50;;;3.00;;
54247;SDS011;40161;39.768;2.722;2023-09-19T04:22:24;5.40;;;2.83;;
54247;SDS011;40161;39.768;2.722;2023-09-19T04:24:50;4.85;;;3.00;;
54247;SDS011;40161;39.768;2.722;2023-09-19T04:27:16;5.32;;;2.95;;
54247;SDS011;40161;39.768;2.722;2023-09-19T04:29:42;5.95;;;3.30;;
54247;SDS011;40161;39.768;2.722;2023-09-19T04:32:08;7.95;;;3.10;;
54247;SDS011;40161;39.768;2.722;2023-09-19T04:34:36;5.78;;;3.13;;
54247;SDS011;40161;39.768;2.722;2023-09-19T04:37:05;6.10;;;3.00;;
54247;SDS011;40161;39.768;2.722;2023-09-19T04:39:31;5.30;;;2.90;;
54247;SDS011;40161;39.768;2.722;2023-09-19T04:41:56;6.40;;;2.67;;
54247;SDS011;40161;39.768;2.722;2023-09-19T04:44:22;8.50;;;4.00;;
54247;SDS011;40161;39.768;2.722;2023-09-19T04:46:48;8.77;;;4.50;;
54247;SDS011;40161;39.768;2.722;2023-09-19T04:49:14;6.57;;;3.00;;
54247;SDS011;40161;39.768;2.722;2023-09-19T04:51:39;5.88;;;3.58;;
54247;SDS011;40161;39.768;2.722;2023-09-19T04:54:05;5.57;;;2.90;;
54247;SDS011;40161;39.768;2.722;2023-09-19T04:56:31;6.72;;;3.35;;
54247;SDS011;40161;39.768;2.722;2023-09-19T04:58:58;6.95;;;2.80;;
54247;SDS011;40161;39.768;2.722;2023-09-19T05:01:26;5.88;;;3.00;;
54247;SDS011;40161;39.768;2.722;2023-09-19T05:03:52;5.47;;;3.10;;
54247;SDS011;40161;39.768;2.722;2023-09-19T05:06:18;10.38;;;4.63;;
54247;SDS011;40161;39.768;2.722;2023-09-19T05:08:48;8.88;;;4.57;;
54247;SDS011;40161;39.768;2.722;2023-09-19T05:11:18;11.38;;;4.75;;
54247;SDS011;40161;39.768;2.722;2023-09-19T05:13:44;9.25;;;3.80;;
54247;SDS011;40161;39.768;2.722;2023-09-19T05:16:10;8.25;;;3.78;;
54247;SDS011;40161;39.768;2.722;2023-09-19T05:18:36;7.53;;;3.35;;
54247;SDS011;40161;39.768;2.722;2023-09-19T05:21:02;7.82;;;3.92;;
54247;SDS011;40161;39.768;2.722;2023-09-19T05:23:28;5.82;;;3.38;;
54247;SDS011;40161;39.768;2.722;2023-09-19T05:25:53;7.35;;;3.63;;
54247;SDS011;40161;39.768;2.722;2023-09-19T05:28:21;6.50;;;3.85;;
54247;SDS011;40161;39.768;2.722;2023-09-19T05:30:47;7.80;;;3.63;;
54247;SDS011;40161;39.768;2.722;2023-09-19T05:33:14;8.05;;;3.58;;
54247;SDS011;40161;39.768;2.722;2023-09-19T05:35:39;7.10;;;3.45;;
54247;SDS011;40161;39.768;2.722;2023-09-19T05:38:06;7.82;;;3.97;;
54247;SDS011;40161;39.768;2.722;2023-09-19T05:43:07;6.88;;;3.30;;
54247;SDS011;40161;39.768;2.722;2023-09-19T05:45:33;7.30;;;3.20;;
54247;SDS011;40161;39.768;2.722;2023-09-19T05:48:06;8.27;;;3.40;;
54247;SDS011;40161;39.768;2.722;2023-09-19T05:50:34;8.90;;;3.53;;
54247;SDS011;40161;39.768;2.722;2023-09-19T05:52:59;9.35;;;3.67;;
54247;SDS011;40161;39.768;2.722;2023-09-19T05:55:25;11.60;;;3.83;;
54247;SDS011;40161;39.768;2.722;2023-09-19T05:57:51;9.65;;;3.28;;
54247;SDS011;40161;39.768;2.722;2023-09-19T06:00:20;9.02;;;4.30;;
54247;SDS011;40161;39.768;2.722;2023-09-19T06:02:52;13.25;;;4.78;;
54247;SDS011;40161;39.768;2.722;2023-09-19T06:05:19;13.15;;;4.45;;
54247;SDS011;40161;39.768;2.722;2023-09-19T06:07:45;10.43;;;4.07;;
54247;SDS011;40161;39.768;2.722;2023-09-19T06:10:11;11.52;;;4.43;;
54247;SDS011;40161;39.768;2.722;2023-09-19T06:12:44;11.85;;;4.15;;
54247;SDS011;40161;39.768;2.722;2023-09-19T06:15:10;12.30;;;3.88;;
54247;SDS011;40161;39.768;2.722;2023-09-19T06:17:51;9.65;;;3.63;;
54247;SDS011;40161;39.768;2.722;2023-09-19T06:20:21;10.65;;;3.80;;
54247;SDS011;40161;39.768;2.722;2023-09-19T06:22:49;7.80;;;3.53;;
54247;SDS011;40161;39.768;2.722;2023-09-19T06:25:15;14.18;;;4.85;;
54247;SDS011;40161;39.768;2.722;2023-09-19T06:27:51;8.48;;;3.72;;
54247;SDS011;40161;39.768;2.722;2023-09-19T06:30:18;7.50;;;3.65;;
54247;SDS011;40161;39.768;2.722;2023-09-19T06:32:45;6.75;;;3.58;;
54247;SDS011;40161;39.768;2.722;2023-09-19T06:35:11;12.75;;;4.07;;
54247;SDS011;40161;39.768;2.722;2023-09-19T06:37:38;13.52;;;4.60;;
54247;SDS011;40161;39.768;2.722;2023-09-19T06:40:10;9.20;;;3.60;;
54247;SDS011;40161;39.768;2.722;2023-09-19T06:42:41;7.25;;;3.55;;
54247;SDS011;40161;39.768;2.722;2023-09-19T06:45:08;6.68;;;3.47;;
54247;SDS011;40161;39.768;2.722;2023-09-19T06:47:36;13.57;;;5.00;;
54247;SDS011;40161;39.768;2.722;2023-09-19T06:50:02;17.25;;;7.50;;
54247;SDS011;40161;39.768;2.722;2023-09-19T06:52:28;47.78;;;28.02;;
54247;SDS011;40161;39.768;2.722;2023-09-19T06:54:54;27.17;;;15.68;;
54247;SDS011;40161;39.768;2.722;2023-09-19T06:57:20;20.17;;;12.00;;
54247;SDS011;40161;39.768;2.722;2023-09-19T06:59:45;17.17;;;11.30;;
54247;SDS011;40161;39.768;2.722;2023-09-19T07:02:11;15.63;;;7.40;;
54247;SDS011;40161;39.768;2.722;2023-09-19T07:04:37;14.73;;;8.25;;
54247;SDS011;40161;39.768;2.722;2023-09-19T07:07:02;17.25;;;8.70;;
54247;SDS011;40161;39.768;2.722;2023-09-19T07:09:28;19.58;;;9.25;;
54247;SDS011;40161;39.768;2.722;2023-09-19T07:11:54;17.98;;;8.80;;
54247;SDS011;40161;39.768;2.722;2023-09-19T07:14:19;19.92;;;9.73;;
54247;SDS011;40161;39.768;2.722;2023-09-19T07:16:45;26.42;;;9.32;;
54247;SDS011;40161;39.768;2.722;2023-09-19T07:19:12;35.20;;;10.90;;
54247;SDS011;40161;39.768;2.722;2023-09-19T07:21:40;35.40;;;11.07;;
54247;SDS011;40161;39.768;2.722;2023-09-19T07:24:05;93.80;;;20.67;;
54247;SDS011;40161;39.768;2.722;2023-09-19T07:26:33;79.60;;;18.52;;
54247;SDS011;40161;39.768;2.722;2023-09-19T07:28:59;52.13;;;15.68;;
54247;SDS011;40161;39.768;2.722;2023-09-19T07:31:25;47.95;;;15.73;;
54247;SDS011;40161;39.768;2.722;2023-09-19T07:33:52;21.38;;;11.85;;
54247;SDS011;40161;39.768;2.722;2023-09-19T07:36:18;15.45;;;8.63;;
54247;SDS011;40161;39.768;2.722;2023-09-19T07:38:44;17.90;;;9.77;;
54247;SDS011;40161;39.768;2.722;2023-09-19T07:41:09;18.13;;;9.82;;
54247;SDS011;40161;39.768;2.722;2023-09-19T07:43:35;19.63;;;11.95;;
54247;SDS011;40161;39.768;2.722;2023-09-19T07:46:03;23.17;;;13.13;;
54247;SDS011;40161;39.768;2.722;2023-09-19T07:48:32;24.45;;;15.10;;
54247;SDS011;40161;39.768;2.722;2023-09-19T07:51:01;31.00;;;16.77;;
54247;SDS011;40161;39.768;2.722;2023-09-19T07:53:27;27.15;;;14.50;;
54247;SDS011;40161;39.768;2.722;2023-09-19T07:56:01;25.25;;;14.35;;
54247;SDS011;40161;39.768;2.722;2023-09-19T07:58:27;24.70;;;14.25;;
54247;SDS011;40161;39.768;2.722;2023-09-19T08:00:52;23.75;;;13.50;;
54247;SDS011;40161;39.768;2.722;2023-09-19T08:03:18;24.65;;;13.20;;
54247;SDS011;40161;39.768;2.722;2023-09-19T08:05:44;53.13;;;33.85;;
54247;SDS011;40161;39.768;2.722;2023-09-19T08:08:10;49.63;;;29.95;;
54247;SDS011;40161;39.768;2.722;2023-09-19T08:10:38;34.30;;;22.52;;
54247;SDS011;40161;39.768;2.722;2023-09-19T08:13:07;30.90;;;17.77;;
54247;SDS011;40161;39.768;2.722;2023-09-19T08:15:42;26.77;;;16.20;;
54247;SDS011;40161;39.768;2.722;2023-09-19T08:18:09;40.17;;;26.90;;
54247;SDS011;40161;39.768;2.722;2023-09-19T08:20:37;27.45;;;16.80;;
54247;SDS011;40161;39.768;2.722;2023-09-19T08:23:03;29.38;;;21.50;;
54247;SDS011;40161;39.768;2.722;2023-09-19T08:25:29;30.13;;;21.92;;
54247;SDS011;40161;39.768;2.722;2023-09-19T08:27:55;56.53;;;41.38;;
54247;SDS011;40161;39.768;2.722;2023-09-19T08:30:25;41.90;;;31.48;;
54247;SDS011;40161;39.768;2.722;2023-09-19T08:32:58;35.45;;;26.20;;
54247;SDS011;40161;39.768;2.722;2023-09-19T08:35:25;35.67;;;25.50;;
54247;SDS011;40161;39.768;2.722;2023-09-19T08:37:51;28.67;;;19.70;;
54247;SDS011;40161;39.768;2.722;2023-09-19T08:40:17;26.42;;;16.90;;
54247;SDS011;40161;39.768;2.722;2023-09-19T08:42:54;25.73;;;14.82;;
54247;SDS011;40161;39.768;2.722;2023-09-19T08:45:21;15.48;;;9.43;;
54247;SDS011;40161;39.768;2.722;2023-09-19T08:55:59;10.55;;;5.30;;
54247;SDS011;40161;39.768;2.722;2023-09-19T08:58:30;8.18;;;3.92;;
54247;SDS011;40161;39.768;2.722;2023-09-19T09:01:05;9.25;;;4.75;;
54247;SDS011;40161;39.768;2.722;2023-09-19T09:03:32;8.93;;;4.22;;
54247;SDS011;40161;39.768;2.722;2023-09-19T09:06:00;8.93;;;3.92;;
54247;SDS011;40161;39.768;2.722;2023-09-19T09:08:26;8.05;;;4.85;;
54247;SDS011;40161;39.768;2.722;2023-09-19T09:10:55;6.80;;;3.28;;
54247;SDS011;40161;39.768;2.722;2023-09-19T09:13:22;6.88;;;3.95;;
54247;SDS011;40161;39.768;2.722;2023-09-19T09:15:51;7.50;;;4.07;;
54247;SDS011;40161;39.768;2.722;2023-09-19T09:18:20;31.58;;;20.70;;
54247;SDS011;40161;39.768;2.722;2023-09-19T09:20:45;24.15;;;14.98;;
54247;SDS011;40161;39.768;2.722;2023-09-19T09:23:13;23.30;;;14.27;;
54247;SDS011;40161;39.768;2.722;2023-09-19T09:25:48;23.70;;;14.60;;
54247;SDS011;40161;39.768;2.722;2023-09-19T09:28:25;23.05;;;13.55;;
54247;SDS011;40161;39.768;2.722;2023-09-19T09:30:53;17.35;;;10.48;;
54247;SDS011;40161;39.768;2.722;2023-09-19T09:33:19;16.92;;;10.80;;
54247;SDS011;40161;39.768;2.722;2023-09-19T09:35:59;18.40;;;11.60;;
54247;SDS011;40161;39.768;2.722;2023-09-19T09:38:46;8.23;;;4.28;;
54247;SDS011;40161;39.768;2.722;2023-09-19T09:41:16;5.90;;;3.33;;
54247;SDS011;40161;39.768;2.722;2023-09-19T09:43:53;6.57;;;2.78;;
54247;SDS011;40161;39.768;2.722;2023-09-19T09:46:20;5.65;;;2.67;;
54247;SDS011;40161;39.768;2.722;2023-09-19T09:49:07;6.47;;;2.72;;
54247;SDS011;40161;39.768;2.722;2023-09-19T09:51:44;5.45;;;2.70;;
54247;SDS011;40161;39.768;2.722;2023-09-19T09:54:26;6.63;;;2.40;;
54247;SDS011;40161;39.768;2.722;2023-09-19T09:57:03;6.38;;;2.47;;
54247;SDS011;40161;39.768;2.722;2023-09-19T10:02:19;5.60;;;2.50;;
54247;SDS011;40161;39.768;2.722;2023-09-19T10:04:53;8.60;;;4.28;;
54247;SDS011;40161;39.768;2.722;2023-09-19T10:07:40;5.50;;;2.50;;
54247;SDS011;40161;39.768;2.722;2023-09-19T10:10:12;25.90;;;18.35;;
54247;SDS011;40161;39.768;2.722;2023-09-19T10:12:48;14.07;;;7.95;;
54247;SDS011;40161;39.768;2.722;2023-09-19T10:15:18;7.70;;;4.88;;
54247;SDS011;40161;39.768;2.722;2023-09-19T10:17:47;8.55;;;3.67;;
54247;SDS011;40161;39.768;2.722;2023-09-19T10:20:13;5.78;;;2.47;;
54247;SDS011;40161;39.768;2.722;2023-09-19T10:23:00;7.57;;;3.40;;
54247;SDS011;40161;39.768;2.722;2023-09-19T10:25:34;6.97;;;2.20;;
54247;SDS011;40161;39.768;2.722;2023-09-19T10:28:03;6.22;;;2.65;;
54247;SDS011;40161;39.768;2.722;2023-09-19T10:30:35;6.85;;;2.63;;
54247;SDS011;40161;39.768;2.722;2023-09-19T10:33:04;5.72;;;2.25;;
54247;SDS011;40161;39.768;2.722;2023-09-19T10:35:33;6.03;;;2.60;;
54247;SDS011;40161;39.768;2.722;2023-09-19T10:38:02;8.45;;;4.20;;
54247;SDS011;40161;39.768;2.722;2023-09-19T10:40:32;11.43;;;5.50;;
54247;SDS011;40161;39.768;2.722;2023-09-19T10:43:02;7.38;;;2.83;;
54247;SDS011;40161;39.768;2.722;2023-09-19T10:45:30;8.48;;;3.95;;
54247;SDS011;40161;39.768;2.722;2023-09-19T10:47:57;8.73;;;3.97;;
54247;SDS011;40161;39.768;2.722;2023-09-19T10:50:24;6.85;;;3.00;;
54247;SDS011;40161;39.768;2.722;2023-09-19T10:52:50;9.10;;;3.85;;
54247;SDS011;40161;39.768;2.722;2023-09-19T10:55:29;8.40;;;3.15;;
54247;SDS011;40161;39.768;2.722;2023-09-19T10:57:56;6.88;;;3.22;;
54247;SDS011;40161;39.768;2.722;2023-09-19T11:00:51;9.05;;;3.00;;
54247;SDS011;40161;39.768;2.722;2023-09-19T11:03:22;5.97;;;2.50;;
54247;SDS011;40161;39.768;2.722;2023-09-19T11:30:36;6.32;;;2.13;;
54247;SDS011;40161;39.768;2.722;2023-09-19T11:33:15;8.10;;;1.50;;
54247;SDS011;40161;39.768;2.722;2023-09-19T11:46:34;8.55;;;2.30;;
54247;SDS011;40161;39.768;2.722;2023-09-19T11:49:17;7.88;;;2.00;;
54247;SDS011;40161;39.768;2.722;2023-09-19T11:51:51;5.28;;;1.83;;
54247;SDS011;40161;39.768;2.722;2023-09-19T11:54:17;6.95;;;2.00;;
54247;SDS011;40161;39.768;2.722;2023-09-19T11:56:48;7.35;;;1.88;;
54247;SDS011;40161;39.768;2.722;2023-09-19T11:59:22;8.32;;;1.83;;
54247;SDS011;40161;39.768;2.722;2023-09-19T12:01:53;6.95;;;1.60;;
54247;SDS011;40161;39.768;2.722;2023-09-19T12:04:32;6.68;;;1.58;;
54247;SDS011;40161;39.768;2.722;2023-09-19T12:07:09;11.05;;;2.10;;
54247;SDS011;40161;39.768;2.722;2023-09-19T12:12:09;7.35;;;2.38;;
54247;SDS011;40161;39.768;2.722;2023-09-19T12:14:38;8.35;;;1.98;;
54247;SDS011;40161;39.768;2.722;2023-09-19T12:17:04;9.57;;;3.28;;
54247;SDS011;40161;39.768;2.722;2023-09-19T12:19:30;5.95;;;1.92;;
54247;SDS011;40161;39.768;2.722;2023-09-19T12:24:31;8.63;;;2.03;;
54247;SDS011;40161;39.768;2.722;2023-09-19T12:27:01;5.82;;;1.95;;
54247;SDS011;40161;39.768;2.722;2023-09-19T12:29:30;8.38;;;2.35;;
54247;SDS011;40161;39.768;2.722;2023-09-19T12:31:57;7.88;;;2.67;;
54247;SDS011;40161;39.768;2.722;2023-09-19T12:34:27;7.25;;;2.22;;
54247;SDS011;40161;39.768;2.722;2023-09-19T12:37:06;7.20;;;2.05;;
54247;SDS011;40161;39.768;2.722;2023-09-19T12:39:44;7.20;;;4.32;;
54247;SDS011;40161;39.768;2.722;2023-09-19T12:42:21;11.93;;;5.03;;
54247;SDS011;40161;39.768;2.722;2023-09-19T12:44:48;8.65;;;4.50;;
54247;SDS011;40161;39.768;2.722;2023-09-19T12:47:21;6.20;;;3.10;;
54247;SDS011;40161;39.768;2.722;2023-09-19T12:50:10;8.20;;;3.08;;
54247;SDS011;40161;39.768;2.722;2023-09-19T12:52:46;8.30;;;3.80;;
54247;SDS011;40161;39.768;2.722;2023-09-19T12:55:24;7.75;;;3.70;;
54247;SDS011;40161;39.768;2.722;2023-09-19T13:03:16;7.30;;;2.40;;
54247;SDS011;40161;39.768;2.722;2023-09-19T13:06:00;9.43;;;2.53;;
54247;SDS011;40161;39.768;2.722;2023-09-19T13:08:28;5.30;;;2.42;;
54247;SDS011;40161;39.768;2.722;2023-09-19T13:11:03;6.40;;;2.00;;
54247;SDS011;40161;39.768;2.722;2023-09-19T13:13:35;8.57;;;2.72;;
54247;SDS011;40161;39.768;2.722;2023-09-19T13:16:03;8.18;;;2.20;;
54247;SDS011;40161;39.768;2.722;2023-09-19T13:18:47;7.32;;;2.10;;
54247;SDS011;40161;39.768;2.722;2023-09-19T13:21:26;5.03;;;2.08;;
54247;SDS011;40161;39.768;2.722;2023-09-19T13:26:48;8.10;;;2.00;;
54247;SDS011;40161;39.768;2.722;2023-09-19T13:29:14;6.53;;;2.10;;
54247;SDS011;40161;39.768;2.722;2023-09-19T13:31:45;8.70;;;3.00;;
54247;SDS011;40161;39.768;2.722;2023-09-19T13:34:14;6.90;;;2.53;;
54247;SDS011;40161;39.768;2.722;2023-09-19T13:36:42;9.45;;;2.53;;
54247;SDS011;40161;39.768;2.722;2023-09-19T13:39:08;7.38;;;2.40;;
54247;SDS011;40161;39.768;2.722;2023-09-19T13:41:38;8.48;;;4.40;;
54247;SDS011;40161;39.768;2.722;2023-09-19T13:44:04;7.22;;;2.90;;
54247;SDS011;40161;39.768;2.722;2023-09-19T13:46:30;7.25;;;2.35;;
54247;SDS011;40161;39.768;2.722;2023-09-19T13:48:58;11.00;;;4.05;;
54247;SDS011;40161;39.768;2.722;2023-09-19T13:51:27;9.07;;;3.10;;
54247;SDS011;40161;39.768;2.722;2023-09-19T13:53:55;6.00;;;2.67;;
54247;SDS011;40161;39.768;2.722;2023-09-19T13:56:20;7.07;;;2.78;;
54247;SDS011;40161;39.768;2.722;2023-09-19T13:58:46;7.32;;;2.58;;
54247;SDS011;40161;39.768;2.722;2023-09-19T14:01:12;7.13;;;2.63;;
54247;SDS011;40161;39.768;2.722;2023-09-19T14:03:38;12.68;;;7.68;;
54247;SDS011;40161;39.768;2.722;2023-09-19T14:06:05;39.90;;;35.65;;
54247;SDS011;40161;39.768;2.722;2023-09-19T14:08:30;38.35;;;27.95;;
54247;SDS011;40161;39.768;2.722;2023-09-19T14:10:56;16.50;;;11.10;;
54247;SDS011;40161;39.768;2.722;2023-09-19T14:13:21;12.65;;;8.25;;
54247;SDS011;40161;39.768;2.722;2023-09-19T14:15:47;27.50;;;15.00;;
54247;SDS011;40161;39.768;2.722;2023-09-19T14:18:12;18.63;;;11.70;;
54247;SDS011;40161;39.768;2.722;2023-09-19T14:20:38;10.98;;;5.03;;
54247;SDS011;40161;39.768;2.722;2023-09-19T14:23:05;9.13;;;3.35;;
54247;SDS011;40161;39.768;2.722;2023-09-19T14:25:33;9.65;;;3.78;;
54247;SDS011;40161;39.768;2.722;2023-09-19T14:27:59;7.65;;;2.67;;
54247;SDS011;40161;39.768;2.722;2023-09-19T14:30:25;9.68;;;2.78;;
54247;SDS011;40161;39.768;2.722;2023-09-19T14:32:51;8.15;;;2.42;;
54247;SDS011;40161;39.768;2.722;2023-09-19T14:35:16;11.05;;;2.58;;
54247;SDS011;40161;39.768;2.722;2023-09-19T14:37:42;9.70;;;2.47;;
54247;SDS011;40161;39.768;2.722;2023-09-19T14:40:08;8.93;;;1.90;;
54247;SDS011;40161;39.768;2.722;2023-09-19T14:42:38;6.53;;;1.70;;
54247;SDS011;40161;39.768;2.722;2023-09-19T14:45:04;7.15;;;2.00;;
54247;SDS011;40161;39.768;2.722;2023-09-19T14:47:31;5.35;;;1.48;;
54247;SDS011;40161;39.768;2.722;2023-09-19T14:49:59;7.25;;;1.50;;
54247;SDS011;40161;39.768;2.722;2023-09-19T14:52:26;8.88;;;1.42;;
54247;SDS011;40161;39.768;2.722;2023-09-19T14:54:53;3.97;;;1.25;;
54247;SDS011;40161;39.768;2.722;2023-09-19T14:57:19;5.22;;;1.40;;
54247;SDS011;40161;39.768;2.722;2023-09-19T14:59:45;5.15;;;1.27;;
54247;SDS011;40161;39.768;2.722;2023-09-19T15:02:11;7.03;;;1.40;;
54247;SDS011;40161;39.768;2.722;2023-09-19T15:04:36;6.70;;;1.40;;
54247;SDS011;40161;39.768;2.722;2023-09-19T15:07:05;6.80;;;1.45;;
54247;SDS011;40161;39.768;2.722;2023-09-19T15:09:31;5.20;;;1.17;;
54247;SDS011;40161;39.768;2.722;2023-09-19T15:11:58;4.85;;;0.90;;
54247;SDS011;40161;39.768;2.722;2023-09-19T15:14:24;4.97;;;1.05;;
54247;SDS011;40161;39.768;2.722;2023-09-19T15:16:54;7.28;;;1.00;;
54247;SDS011;40161;39.768;2.722;2023-09-19T15:19:20;4.05;;;0.90;;
54247;SDS011;40161;39.768;2.722;2023-09-19T15:21:47;2.95;;;0.77;;
54247;SDS011;40161;39.768;2.722;2023-09-19T15:24:13;2.15;;;0.60;;
54247;SDS011;40161;39.768;2.722;2023-09-19T15:26:39;2.95;;;0.70;;
54247;SDS011;40161;39.768;2.722;2023-09-19T15:29:06;2.15;;;0.80;;
54247;SDS011;40161;39.768;2.722;2023-09-19T15:31:32;3.53;;;1.00;;
54247;SDS011;40161;39.768;2.722;2023-09-19T15:33:58;4.22;;;0.82;;
54247;SDS011;40161;39.768;2.722;2023-09-19T15:36:24;3.38;;;0.80;;
54247;SDS011;40161;39.768;2.722;2023-09-19T15:39:07;4.13;;;1.02;;
54247;SDS011;40161;39.768;2.722;2023-09-19T15:41:41;3.72;;;0.77;;
54247;SDS011;40161;39.768;2.722;2023-09-19T15:44:16;2.88;;;0.73;;
54247;SDS011;40161;39.768;2.722;2023-09-19T15:46:45;1.60;;;0.60;;
54247;SDS011;40161;39.768;2.722;2023-09-19T15:49:11;2.30;;;0.70;;
54247;SDS011;40161;39.768;2.722;2023-09-19T15:51:37;3.22;;;0.60;;
54247;SDS011;40161;39.768;2.722;2023-09-19T15:54:10;3.67;;;0.90;;
54247;SDS011;40161;39.768;2.722;2023-09-19T15:56:43;2.47;;;0.80;;
54247;SDS011;40161;39.768;2.722;2023-09-19T15:59:10;3.63;;;1.00;;
54247;SDS011;40161;39.768;2.722;2023-09-19T16:01:40;4.28;;;1.20;;
54247;SDS011;40161;39.768;2.722;2023-09-19T16:04:07;2.88;;;0.80;;
54247;SDS011;40161;39.768;2.722;2023-09-19T16:06:37;3.90;;;0.80;;
54247;SDS011;40161;39.768;2.722;2023-09-19T16:09:04;3.95;;;0.73;;
54247;SDS011;40161;39.768;2.722;2023-09-19T16:11:34;4.68;;;0.80;;
54247;SDS011;40161;39.768;2.722;2023-09-19T16:14:00;4.80;;;0.80;;